Patuxent River Naval Air Station, MD

5:59 PM EDT on September 04, 2015 (GMT -0400)
Patuxent River Naval Air Station | | Change Station
CLOSE
Current Station
Airport
Location: Patuxent River,
Elevation: 39 ft
Nearby Weather Stations

Elev 39 ft 38.29 °N, 76.41 °W | Updated 7 minutes ago

Mostly Cloudy
Mostly Cloudy
85 °F
Feels Like 89 °F
N
4
Wind Variable Wind from Variable

Today
High -- | Low -- °F
--% Chance of Precip.
Yesterday
High -- | Low -- °F
Precip. -- in
6:37 AM 7:31 PM
Waning Gibbous, 55% visible
Pressure 30.03 in
Visibility 8.0 miles
Clouds Few 4500 ft
Few 12000 ft
Mostly Cloudy 25000 ft
Heat Index 89 °F
Dew Point 69 °F
Humidity 59%
Rainfall 0.00 in
Snow Depth Not available.
UV 1 out of 12
Pollen 8.30 out of 12
Air Quality Not available.
Flu Activity Not available.
METAR KNHK 042152Z VRB03KT 8SM FEW045 FEW120 BKN250 29/21 A3003 RMK AO2 SLP168 T2 SET T02940206
Pressure 30.03 in
Visibility 8.0 miles
Clouds Few 4500 ft
Few 12000 ft
Mostly Cloudy 25000 ft
Heat Index 89 °F
Dew Point 69 °F
Humidity 59%
Rainfall 0.00 in
Snow Depth Not available.
UV 1 out of 12
Pollen 8.30 out of 12
Air Quality Not available.
Flu Activity Not available.
METAR KNHK 042152Z VRB03KT 8SM FEW045 FEW120 BKN250 29/21 A3003 RMK AO2 SLP168 T2 SET T02940206

10-Day Weather Forecast

×

Almanac

Astronomy

Sep. 04, 2015 Rise Set
Actual Time
Civil Twilight
Nautical Twilight
Astronomical Twilight
Moon
Length of Visible Light
Length of Day
Tomorrow will be .
, % of the Moon is Illuminated

Today's Extremes

State Highs State Lows

Community

WunderPhotos

Upload Photos

1,852,297 photos uploaded!

WunderBlogs® & News

Nearby

Air Quality

  Air Quality AQ Index Pollutant
Not available.

Snow Depth

Station Depth Elevation

Earthquake Activity

City Distance Mag. Time & Date
Minimum magnitude displayed is 2.5.

Coastal Water Temperatures

Place Temperature

Stations

Nearby Weather Stations

Station Location Temp. Windchill Dew Point Humidity Wind Precip. Elev Updated Type